Time;durP1;ratioP1;P1;durP2;ratioP2;P2;SDS_P1;SDS_P2;PMS_P1;PMS_P2;Temp;Humidity;BMP_temperature;BMP_pressure;BME280_temperature;BME280_humidity;BME280_pressure;Samples;Min_cycle;Max_cycle;Signal;HPM_P1;HPM_P2
2022/09/18 00:01:20;;;;;;;7.77;2.30;;;10.10;99.90;;;;;;5034868;28;20210;-52
2022/09/18 00:03:47;;;;;;;10.10;2.73;;;10.10;99.90;;;;;;5034777;28;20264;-54
2022/09/18 00:06:17;;;;;;;6.93;2.30;;;10.20;99.90;;;;;;5034643;28;20272;-52
2022/09/18 00:08:44;;;;;;;7.17;2.27;;;10.20;99.90;;;;;;5034827;28;20259;-51
2022/09/18 00:11:13;;;;;;;6.33;2.67;;;10.20;99.90;;;;;;5034788;28;20206;-49
2022/09/18 00:13:40;;;;;;;7.70;2.27;;;10.30;99.90;;;;;;5034532;28;20210;-53
2022/09/18 00:16:09;;;;;;;7.33;2.73;;;10.30;99.90;;;;;;5034194;28;20507;-53
2022/09/18 00:18:36;;;;;;;7.10;2.63;;;10.30;99.90;;;;;;5034804;28;20256;-51
2022/09/18 00:21:04;;;;;;;10.27;2.57;;;10.30;99.90;;;;;;5034453;28;20218;-56
2022/09/18 00:23:32;;;;;;;5.57;2.80;;;10.30;99.90;;;;;;5034473;28;20206;-49
2022/09/18 00:25:59;;;;;;;9.47;3.23;;;10.30;99.90;;;;;;5034149;28;20279;-49
2022/09/18 00:28:26;;;;;;;8.07;3.33;;;10.30;99.90;;;;;;5034363;28;20215;-54
2022/09/18 00:30:53;;;;;;;10.27;3.97;;;10.30;99.90;;;;;;5034462;28;20272;-50
2022/09/18 00:33:20;;;;;;;5.80;3.70;;;10.30;99.90;;;;;;5034382;28;20202;-49
2022/09/18 00:35:46;;;;;;;7.27;3.60;;;10.20;99.90;;;;;;5034340;28;20229;-52
2022/09/18 00:38:13;;;;;;;13.67;4.17;;;10.20;99.90;;;;;;5034079;28;20202;-49
2022/09/18 00:40:41;;;;;;;7.63;4.07;;;10.20;99.90;;;;;;5034283;28;20210;-54
2022/09/18 00:43:21;;;;;;;8.93;3.30;;;10.30;99.90;;;;;;5034031;28;20581;-57
2022/09/18 00:45:54;;;;;;;6.53;3.47;;;10.30;99.90;;;;;;5034130;28;20775;-54
2022/09/18 00:48:22;;;;;;;10.80;3.30;;;10.30;99.90;;;;;;5034057;28;20226;-51
2022/09/18 00:50:48;;;;;;;9.17;4.10;;;10.30;99.90;;;;;;5034038;28;20262;-53
2022/09/18 00:53:15;;;;;;;10.97;4.13;;;10.30;99.90;;;;;;5033901;28;20260;-54
2022/09/18 00:55:43;;;;;;;6.70;3.93;;;10.30;99.90;;;;;;5033789;28;20222;-54
2022/09/18 00:58:10;;;;;;;10.00;3.73;;;10.30;99.90;;;;;;5033678;28;20210;-54
2022/09/18 01:00:37;;;;;;;8.87;4.23;;;10.30;99.90;;;;;;5033970;28;20305;-55
2022/09/18 01:03:04;;;;;;;9.50;4.27;;;10.40;99.90;;;;;;5033716;28;20677;-56
2022/09/18 01:05:44;;;;;;;11.40;4.17;;;10.20;99.90;;;;;;5033647;28;20566;-54
2022/09/18 01:08:25;;;;;;;12.17;4.33;;;10.30;99.90;;;;;;5033390;28;20357;-57
2022/09/18 01:11:04;;;;;;;8.47;4.27;;;10.30;99.90;;;;;;5033819;28;20213;-55
2022/09/18 01:13:38;;;;;;;11.70;4.80;;;10.30;99.90;;;;;;5033645;28;20295;-55
2022/09/18 01:16:14;;;;;;;10.53;4.20;;;10.30;99.90;;;;;;5033279;28;20641;-55
2022/09/18 01:18:46;;;;;;;11.10;4.00;;;10.30;99.90;;;;;;5033673;28;20236;-58
2022/09/18 01:21:14;;;;;;;9.80;3.97;;;10.40;99.90;;;;;;5033730;28;20594;-58
2022/09/18 01:24:32;;;;;;;11.97;3.93;;;10.40;99.90;;;;;;5033637;28;20202;-56
2022/09/18 01:27:04;;;;;;;10.70;3.97;;;10.30;99.90;;;;;;5033197;28;20300;-57
2022/09/18 01:29:40;;;;;;;11.80;3.60;;;10.40;99.90;;;;;;5033601;28;20211;-55
2022/09/18 01:32:12;;;;;;;12.83;4.30;;;10.40;99.90;;;;;;5033915;28;20257;-49
2022/09/18 01:34:47;;;;;;;9.60;3.70;;;10.40;99.90;;;;;;5033148;28;20276;-56
2022/09/18 01:37:20;;;;;;;11.43;4.10;;;10.40;99.90;;;;;;5032803;28;20272;-57
2022/09/18 01:39:53;;;;;;;9.20;4.03;;;10.30;99.90;;;;;;5033026;28;20626;-53
2022/09/18 01:42:22;;;;;;;11.00;4.30;;;10.40;99.90;;;;;;5033192;28;20206;-56
2022/09/18 01:44:55;;;;;;;6.17;3.47;;;10.40;99.90;;;;;;5032786;28;20798;-55
2022/09/18 01:47:24;;;;;;;9.47;3.50;;;10.40;99.90;;;;;;5032827;28;20226;-57
2022/09/18 01:49:54;;;;;;;10.43;3.80;;;10.40;99.90;;;;;;5032884;28;20206;-52
2022/09/18 01:52:26;;;;;;;10.37;4.33;;;10.40;99.90;;;;;;5033042;28;20210;-52
2022/09/18 01:54:57;;;;;;;9.03;4.13;;;10.40;99.90;;;;;;5032826;28;20256;-51
2022/09/18 01:57:28;;;;;;;9.43;3.87;;;10.40;99.90;;;;;;5032499;28;20222;-53
2022/09/18 01:59:59;;;;;;;9.53;4.00;;;10.40;99.90;;;;;;5032630;28;20256;-54
2022/09/18 02:02:31;;;;;;;8.83;3.80;;;10.40;99.90;;;;;;5032629;28;20708;-54
2022/09/18 02:05:00;;;;;;;7.30;4.03;;;10.40;99.90;;;;;;5032729;28;20213;-56
2022/09/18 02:07:32;;;;;;;7.83;4.07;;;10.40;99.90;;;;;;5032238;28;20237;-55
2022/09/18 02:09:59;;;;;;;10.37;3.83;;;10.40;99.90;;;;;;5032479;28;20256;-54
2022/09/18 02:12:28;;;;;;;11.77;4.20;;;10.40;99.90;;;;;;5032560;28;20206;-56
2022/09/18 02:15:00;;;;;;;10.13;3.60;;;10.40;99.90;;;;;;5032221;28;20211;-57
2022/09/18 02:17:32;;;;;;;11.07;3.63;;;10.40;99.90;;;;;;5032164;28;20230;-53
2022/09/18 02:20:01;;;;;;;9.17;4.20;;;10.40;99.90;;;;;;5032290;28;20295;-56
2022/09/18 02:22:33;;;;;;;8.47;3.60;;;10.40;99.90;;;;;;5032299;28;20224;-57
2022/09/18 02:25:03;;;;;;;7.77;4.00;;;10.40;99.90;;;;;;5032444;28;20244;-52
2022/09/18 02:27:32;;;;;;;10.17;3.80;;;10.40;99.90;;;;;;5031843;28;20284;-55
2022/09/18 02:30:02;;;;;;;9.03;3.47;;;10.40;99.90;;;;;;5032448;28;20210;-58
2022/09/18 02:32:28;;;;;;;10.13;4.10;;;10.40;99.90;;;;;;5032437;28;20254;-56
2022/09/18 02:34:55;;;;;;;8.97;3.87;;;10.40;99.90;;;;;;5032122;28;20664;-57
2022/09/18 02:37:32;;;;;;;14.50;4.77;;;10.40;99.90;;;;;;5031229;28;20272;-52
2022/09/18 02:40:09;;;;;;;8.50;3.77;;;10.40;99.90;;;;;;5031713;28;20578;-58
2022/09/18 02:42:43;;;;;;;15.40;4.80;;;10.50;99.90;;;;;;5032276;28;20228;-54
2022/09/18 02:45:20;;;;;;;9.90;5.30;;;10.40;99.90;;;;;;5032129;28;20210;-56
2022/09/18 02:47:59;;;;;;;9.13;4.70;;;10.50;99.90;;;;;;5031826;28;20648;-57
2022/09/18 02:50:32;;;;;;;11.70;5.20;;;10.50;99.90;;;;;;5032290;28;20264;-55
2022/09/18 02:53:04;;;;;;;11.87;5.10;;;10.50;99.90;;;;;;5032105;28;20268;-56
2022/09/18 02:55:41;;;;;;;11.67;5.50;;;10.50;99.90;;;;;;5031801;28;20273;-55
2022/09/18 02:58:15;;;;;;;11.67;5.13;;;10.50;99.90;;;;;;5031709;28;20207;-54
2022/09/18 03:00:45;;;;;;;10.20;5.93;;;10.50;99.90;;;;;;5031669;28;20206;-59
2022/09/18 03:03:16;;;;;;;9.67;6.03;;;10.50;99.90;;;;;;5032014;28;20647;-55
2022/09/18 03:05:43;;;;;;;11.83;6.77;;;10.50;99.90;;;;;;5031816;28;20227;-55
2022/09/18 03:08:10;;;;;;;10.90;6.90;;;10.60;99.90;;;;;;5031785;28;20595;-55
2022/09/18 03:10:36;;;;;;;8.50;6.20;;;10.60;99.90;;;;;;5031686;28;20210;-57
2022/09/18 03:13:03;;;;;;;8.33;6.20;;;10.60;99.90;;;;;;5031693;28;20283;-56
2022/09/18 03:15:30;;;;;;;16.40;6.43;;;10.60;99.90;;;;;;5031441;28;20736;-55
2022/09/18 03:17:58;;;;;;;11.83;6.33;;;10.60;99.90;;;;;;5031668;28;20261;-57
2022/09/18 03:20:25;;;;;;;11.43;6.73;;;10.60;99.90;;;;;;5031719;28;20218;-55
2022/09/18 03:22:52;;;;;;;12.80;6.67;;;10.60;99.90;;;;;;5031703;28;20681;-58
2022/09/18 03:25:18;;;;;;;11.70;6.30;;;10.60;99.90;;;;;;5031713;28;20206;-57
2022/09/18 03:27:45;;;;;;;10.03;6.70;;;10.60;99.90;;;;;;5031276;28;20222;-57
2022/09/18 03:30:12;;;;;;;15.03;6.83;;;10.60;99.90;;;;;;5031836;28;20337;-55
2022/09/18 03:32:38;;;;;;;15.83;6.27;;;10.60;99.90;;;;;;5031844;28;20618;-54
2022/09/18 03:35:07;;;;;;;14.07;6.63;;;10.60;99.90;;;;;;5031741;28;20264;-53
2022/09/18 03:37:34;;;;;;;16.47;7.27;;;10.60;99.90;;;;;;5031373;28;20204;-56
2022/09/18 03:40:01;;;;;;;12.23;7.10;;;10.50;99.90;;;;;;5031467;28;20261;-57
2022/09/18 03:42:28;;;;;;;18.50;7.87;;;10.60;99.90;;;;;;5031247;28;20669;-53
2022/09/18 03:44:56;;;;;;;12.20;7.13;;;10.50;99.90;;;;;;5031595;28;20252;-58
2022/09/18 03:47:22;;;;;;;10.73;6.70;;;10.50;99.90;;;;;;5031146;28;20675;-55
2022/09/18 03:49:49;;;;;;;13.80;6.83;;;10.50;99.90;;;;;;5034925;28;20207;-57
2022/09/18 03:52:18;;;;;;;17.87;6.80;;;10.50;99.90;;;;;;5034991;28;20723;-57
2022/09/18 03:54:44;;;;;;;15.90;6.63;;;10.40;99.90;;;;;;5035156;28;20202;-56
2022/09/18 03:57:11;;;;;;;16.93;6.93;;;10.40;99.90;;;;;;5034883;28;20280;-58
2022/09/18 03:59:37;;;;;;;14.20;6.97;;;10.50;99.90;;;;;;5035073;28;20362;-54
2022/09/18 04:02:04;;;;;;;13.77;6.20;;;10.50;99.90;;;;;;5034954;28;20738;-53
2022/09/18 04:04:31;;;;;;;11.40;6.93;;;10.50;99.90;;;;;;5034901;28;20677;-56
2022/09/18 04:06:57;;;;;;;11.73;6.23;;;10.50;99.90;;;;;;5034923;28;20234;-56
2022/09/18 04:09:25;;;;;;;18.57;7.33;;;10.40;99.90;;;;;;5034570;28;20222;-55
2022/09/18 04:11:52;;;;;;;14.60;7.20;;;10.40;99.90;;;;;;5034657;28;20257;-51
2022/09/18 04:14:19;;;;;;;9.60;6.53;;;10.40;99.90;;;;;;5034851;28;20638;-57
2022/09/18 04:16:45;;;;;;;17.00;7.47;;;10.50;99.90;;;;;;5034662;28;20648;-57
2022/09/18 04:19:12;;;;;;;11.17;6.83;;;10.40;99.90;;;;;;5034641;28;20210;-58
2022/09/18 04:21:38;;;;;;;12.20;7.13;;;10.40;99.90;;;;;;5034466;28;20265;-54
2022/09/18 04:24:06;;;;;;;15.77;6.97;;;10.40;99.90;;;;;;5034660;28;20210;-55
2022/09/18 04:26:35;;;;;;;11.43;6.90;;;10.50;99.90;;;;;;5034366;28;20577;-53
2022/09/18 04:29:02;;;;;;;9.93;7.13;;;10.40;99.90;;;;;;5034571;28;20723;-51
2022/09/18 04:31:28;;;;;;;13.43;7.50;;;10.40;99.90;;;;;;5034784;28;20202;-51
2022/09/18 04:33:55;;;;;;;12.33;7.47;;;10.50;99.90;;;;;;5034494;28;20210;-55
2022/09/18 04:36:22;;;;;;;16.37;8.53;;;10.50;99.90;;;;;;5034100;28;20296;-56
2022/09/18 04:38:48;;;;;;;15.10;7.53;;;10.40;99.90;;;;;;5034859;28;20257;-56
2022/09/18 04:41:15;;;;;;;15.17;7.70;;;10.40;99.90;;;;;;5034395;28;20280;-55
2022/09/18 04:43:43;;;;;;;12.73;8.40;;;10.40;99.90;;;;;;5035102;28;20206;-58
2022/09/18 04:46:09;;;;;;;16.37;7.97;;;10.50;99.90;;;;;;5033889;28;20230;-53
2022/09/18 04:48:36;;;;;;;12.10;6.97;;;10.50;99.90;;;;;;5033941;28;20218;-57
2022/09/18 04:51:03;;;;;;;10.80;7.47;;;10.50;99.90;;;;;;5033964;28;20210;-51
2022/09/18 04:53:31;;;;;;;10.00;7.00;;;10.50;99.90;;;;;;5034083;28;20245;-54
2022/09/18 04:55:57;;;;;;;15.50;7.37;;;10.50;99.90;;;;;;5033761;28;20227;-51
2022/09/18 04:58:24;;;;;;;13.67;7.50;;;10.50;99.90;;;;;;5033968;28;20198;-54
2022/09/18 05:00:52;;;;;;;13.53;6.60;;;10.40;99.90;;;;;;5032851;28;20692;-51
2022/09/18 05:03:21;;;;;;;10.77;5.87;;;10.40;99.90;;;;;;5033736;28;20244;-54
2022/09/18 05:05:48;;;;;;;10.47;5.63;;;10.40;99.90;;;;;;5033564;28;20316;-52
2022/09/18 05:08:14;;;;;;;17.03;6.50;;;10.40;99.90;;;;;;5033528;28;20228;-52
2022/09/18 05:10:42;;;;;;;10.73;5.50;;;10.30;99.90;;;;;;5033655;28;20207;-52
2022/09/18 05:13:09;;;;;;;11.77;5.50;;;10.30;99.90;;;;;;5033632;28;20256;-57
2022/09/18 05:15:35;;;;;;;11.70;5.50;;;10.40;99.90;;;;;;5033542;28;20234;-55
2022/09/18 05:18:06;;;;;;;11.23;5.57;;;10.40;99.90;;;;;;5033295;28;20203;-57
2022/09/18 05:20:34;;;;;;;14.30;5.27;;;10.40;99.90;;;;;;5033446;28;20826;-56
2022/09/18 05:23:01;;;;;;;9.17;5.30;;;10.40;99.90;;;;;;5033459;28;20206;-57
2022/09/18 05:25:29;;;;;;;10.03;5.13;;;10.40;99.90;;;;;;5033506;28;20230;-55
2022/09/18 05:27:56;;;;;;;9.97;5.10;;;10.40;99.90;;;;;;5033082;28;20256;-57
2022/09/18 05:30:24;;;;;;;11.03;4.90;;;10.40;99.90;;;;;;5033391;28;20673;-59
2022/09/18 05:32:55;;;;;;;13.00;4.97;;;10.40;99.90;;;;;;5033235;28;20210;-51
2022/09/18 05:35:24;;;;;;;7.37;3.97;;;10.50;99.90;;;;;;5033266;28;20213;-53
2022/09/18 05:37:51;;;;;;;9.37;4.50;;;10.40;99.90;;;;;;5032949;28;20202;-57
2022/09/18 05:40:18;;;;;;;7.93;4.03;;;10.50;99.90;;;;;;5033527;28;20218;-54
2022/09/18 05:42:45;;;;;;;7.87;4.20;;;10.50;99.90;;;;;;5033124;28;20260;-59
2022/09/18 05:45:12;;;;;;;9.33;4.37;;;10.50;99.90;;;;;;5032917;28;20210;-51
2022/09/18 05:47:39;;;;;;;10.63;4.83;;;10.50;99.90;;;;;;5032503;28;20212;-57
2022/09/18 05:50:07;;;;;;;8.87;3.93;;;10.50;99.90;;;;;;5033138;28;20210;-53
2022/09/18 05:52:35;;;;;;;11.87;6.00;;;10.50;99.90;;;;;;5032869;28;20264;-59
2022/09/18 05:55:01;;;;;;;11.83;6.17;;;10.50;99.90;;;;;;5032814;28;20210;-55
2022/09/18 05:57:28;;;;;;;17.00;7.03;;;10.50;99.90;;;;;;5032429;28;20230;-56
2022/09/18 05:59:55;;;;;;;10.63;6.50;;;10.50;99.90;;;;;;5032612;28;20206;-55
2022/09/18 06:02:21;;;;;;;12.53;7.57;;;10.60;99.90;;;;;;5032761;28;20211;-59
2022/09/18 06:04:48;;;;;;;14.67;7.37;;;10.60;99.90;;;;;;5032809;28;20215;-54
2022/09/18 06:07:16;;;;;;;16.43;7.87;;;10.70;99.90;;;;;;5032402;28;20235;-54
2022/09/18 06:09:44;;;;;;;15.63;7.83;;;10.70;99.90;;;;;;5032423;28;20230;-55
2022/09/18 06:12:10;;;;;;;14.13;7.97;;;10.60;99.90;;;;;;5032411;28;20210;-55
2022/09/18 06:14:37;;;;;;;17.40;8.13;;;10.70;99.90;;;;;;5032375;28;20715;-54
2022/09/18 06:17:04;;;;;;;12.20;8.30;;;10.60;99.90;;;;;;5032406;28;20229;-54
2022/09/18 06:19:31;;;;;;;13.43;8.07;;;10.70;99.90;;;;;;5032420;28;20206;-55
2022/09/18 06:21:57;;;;;;;12.60;7.50;;;10.70;99.90;;;;;;5032603;28;20601;-55
2022/09/18 06:24:24;;;;;;;12.60;8.00;;;10.70;99.90;;;;;;5032289;28;20264;-55
2022/09/18 06:26:52;;;;;;;10.60;7.40;;;10.70;99.90;;;;;;5032053;28;20577;-56
2022/09/18 06:29:18;;;;;;;11.57;7.60;;;10.70;99.90;;;;;;5031980;28;20226;-52
2022/09/18 06:31:45;;;;;;;18.77;8.03;;;10.70;99.90;;;;;;5032343;28;20206;-55
2022/09/18 06:34:11;;;;;;;13.87;8.73;;;10.70;99.90;;;;;;5032327;28;20633;-54
2022/09/18 06:36:38;;;;;;;14.20;8.27;;;10.80;99.90;;;;;;5032012;28;20233;-53
2022/09/18 06:39:05;;;;;;;12.87;8.47;;;10.70;99.90;;;;;;5031921;28;20668;-56
2022/09/18 06:41:31;;;;;;;11.20;7.50;;;10.80;99.90;;;;;;5032137;28;20263;-55
2022/09/18 06:43:59;;;;;;;15.60;8.60;;;10.80;99.90;;;;;;5032019;28;20214;-57
2022/09/18 06:46:26;;;;;;;18.40;8.07;;;10.90;99.90;;;;;;5031901;28;20292;-53
2022/09/18 06:48:52;;;;;;;12.67;8.93;;;10.90;99.90;;;;;;5032013;28;20222;-57
2022/09/18 06:51:19;;;;;;;13.73;8.97;;;10.90;99.90;;;;;;5031868;28;20736;-55
2022/09/18 06:53:46;;;;;;;11.30;7.80;;;10.90;99.90;;;;;;5031816;28;20209;-52
2022/09/18 06:56:12;;;;;;;14.70;7.93;;;10.90;99.90;;;;;;5031722;28;20721;-54
2022/09/18 06:58:39;;;;;;;14.80;7.80;;;10.90;99.90;;;;;;5031993;28;20207;-57
2022/09/18 07:01:07;;;;;;;10.20;7.23;;;11.00;99.90;;;;;;5031906;28;20622;-54
2022/09/18 07:03:33;;;;;;;16.30;7.67;;;11.00;99.90;;;;;;5031707;28;20256;-55
2022/09/18 07:06:00;;;;;;;11.43;7.40;;;11.00;99.90;;;;;;5031590;28;20230;-53
2022/09/18 07:08:26;;;;;;;12.53;6.67;;;10.90;99.90;;;;;;5031611;28;20268;-54
2022/09/18 07:10:53;;;;;;;15.90;6.60;;;11.00;99.90;;;;;;5031674;28;20341;-58
2022/09/18 07:13:20;;;;;;;8.97;6.50;;;11.00;99.90;;;;;;5031848;28;20268;-55
2022/09/18 07:15:47;;;;;;;12.53;6.73;;;11.00;99.90;;;;;;5031679;28;20230;-54
2022/09/18 07:18:15;;;;;;;10.27;7.07;;;11.00;99.90;;;;;;5031500;28;20217;-56
2022/09/18 07:20:41;;;;;;;17.77;7.57;;;11.00;99.90;;;;;;5031602;28;20287;-54
2022/09/18 07:23:08;;;;;;;13.23;7.17;;;11.10;99.90;;;;;;5032583;28;20210;-55
2022/09/18 07:25:35;;;;;;;14.10;7.20;;;11.10;99.90;;;;;;5035736;28;20230;-55
2022/09/18 07:28:03;;;;;;;14.37;6.80;;;11.10;99.90;;;;;;5035456;28;20212;-58
2022/09/18 07:30:30;;;;;;;10.57;6.00;;;11.10;99.90;;;;;;5035626;28;20249;-54
2022/09/18 07:32:57;;;;;;;9.77;5.37;;;11.20;99.90;;;;;;5035521;28;20260;-57
2022/09/18 07:35:25;;;;;;;14.50;6.03;;;11.20;99.90;;;;;;5035456;28;20670;-57
2022/09/18 07:37:51;;;;;;;9.77;6.10;;;11.20;99.90;;;;;;5034979;28;20261;-53
2022/09/18 07:40:18;;;;;;;10.43;6.30;;;11.30;99.90;;;;;;5035482;28;20632;-55
2022/09/18 07:42:44;;;;;;;10.63;6.10;;;11.40;99.90;;;;;;5035502;28;20210;-57
2022/09/18 07:45:11;;;;;;;11.97;6.40;;;11.40;99.90;;;;;;5035136;28;20696;-51
2022/09/18 07:47:38;;;;;;;7.33;5.57;;;11.40;99.90;;;;;;5035236;28;20218;-53
2022/09/18 07:50:06;;;;;;;8.47;4.80;;;11.50;99.90;;;;;;5034942;28;20223;-53
2022/09/18 07:52:34;;;;;;;7.27;5.23;;;11.50;99.90;;;;;;5035104;28;20203;-53
2022/09/18 07:55:00;;;;;;;9.43;5.07;;;11.50;99.90;;;;;;5035125;28;20210;-52
2022/09/18 07:57:27;;;;;;;7.73;4.60;;;11.40;99.90;;;;;;5035006;28;20257;-55
2022/09/18 07:59:54;;;;;;;6.10;4.50;;;11.60;99.90;;;;;;5035696;28;20609;-59
2022/09/18 08:02:20;;;;;;;6.37;4.30;;;11.60;99.90;;;;;;5035472;28;20273;-59
2022/09/18 08:04:47;;;;;;;4.90;3.60;;;11.70;99.90;;;;;;5034915;28;20206;-54
2022/09/18 08:07:13;;;;;;;6.10;2.97;;;11.70;99.90;;;;;;5034738;28;20718;-58
2022/09/18 08:09:42;;;;;;;5.60;2.70;;;11.80;99.90;;;;;;5034861;28;20230;-55
2022/09/18 08:12:08;;;;;;;5.27;2.17;;;11.80;99.90;;;;;;5034952;28;20210;-58
2022/09/18 08:14:35;;;;;;;4.97;2.07;;;11.70;99.90;;;;;;5034763;28;20620;-56
2022/09/18 08:17:03;;;;;;;4.23;1.97;;;11.50;99.90;;;;;;5034509;28;20230;-56
2022/09/18 08:19:29;;;;;;;6.77;1.47;;;11.60;99.90;;;;;;5034525;28;20214;-57
2022/09/18 08:21:56;;;;;;;3.93;1.87;;;11.70;99.90;;;;;;5034978;28;20208;-56
2022/09/18 08:24:23;;;;;;;2.40;1.90;;;11.60;99.90;;;;;;5034606;28;20256;-54
2022/09/18 08:26:51;;;;;;;1.83;1.67;;;11.70;99.90;;;;;;5034448;28;20313;-53
2022/09/18 08:29:18;;;;;;;2.07;1.83;;;11.50;99.90;;;;;;5034368;28;20288;-56
2022/09/18 08:31:45;;;;;;;4.00;1.77;;;11.60;99.90;;;;;;5034408;28;20630;-56
2022/09/18 08:34:12;;;;;;;3.13;1.63;;;11.60;99.90;;;;;;5034930;28;20206;-64
2022/09/18 08:36:39;;;;;;;5.37;1.73;;;11.60;99.90;;;;;;5033801;28;20233;-61
2022/09/18 08:39:06;;;;;;;2.13;1.60;;;11.70;99.90;;;;;;5033903;28;20237;-58
2022/09/18 08:41:58;;;;;;;2.50;1.70;;;11.60;99.90;;;;;;5034053;28;20210;-58
2022/09/18 08:44:28;;;;;;;9.13;2.90;;;11.60;99.90;;;;;;5033654;28;20202;-57
2022/09/18 08:47:02;;;;;;;4.77;3.07;;;11.60;99.90;;;;;;5033315;28;20234;-61
2022/09/18 08:49:32;;;;;;;4.57;3.00;;;11.70;99.90;;;;;;5031653;28;20231;-62
2022/09/18 08:52:04;;;;;;;5.33;3.90;;;11.70;99.90;;;;;;5033383;28;20211;-62
2022/09/18 08:54:45;;;;;;;8.60;4.47;;;11.60;99.90;;;;;;5033593;28;20217;-62
2022/09/18 08:57:17;;;;;;;10.80;5.10;;;11.60;99.90;;;;;;5033136;28;20226;-63
2022/09/18 08:59:46;;;;;;;9.73;5.07;;;11.60;99.90;;;;;;5033102;28;20210;-63
2022/09/18 09:02:33;;;;;;;6.93;5.30;;;11.60;99.90;;;;;;5032387;28;20214;-63
2022/09/18 09:05:05;;;;;;;8.17;5.17;;;11.50;99.90;;;;;;5031240;28;20208;-62
2022/09/18 09:07:50;;;;;;;9.00;5.77;;;11.50;99.90;;;;;;5032491;28;20288;-62
2022/09/18 09:10:26;;;;;;;8.43;5.17;;;11.50;99.90;;;;;;5033102;28;20236;-62
2022/09/18 09:13:07;;;;;;;8.83;5.40;;;11.50;99.90;;;;;;5033037;28;20211;-61
2022/09/18 09:15:38;;;;;;;6.97;4.83;;;11.50;99.90;;;;;;5032704;28;20237;-62
2022/09/18 09:18:15;;;;;;;7.20;4.70;;;11.40;99.90;;;;;;5032773;28;20274;-61
2022/09/18 09:20:50;;;;;;;8.90;4.50;;;11.30;99.90;;;;;;5040165;28;20244;-61
2022/09/18 09:23:21;;;;;;;8.67;4.27;;;11.40;99.90;;;;;;5032779;28;20348;-60
2022/09/18 09:25:59;;;;;;;6.20;4.17;;;11.40;99.90;;;;;;5032693;28;20231;-62
2022/09/18 09:28:31;;;;;;;7.97;4.47;;;11.50;99.90;;;;;;5032357;28;20208;-63
2022/09/18 09:31:01;;;;;;;7.37;4.30;;;11.50;99.90;;;;;;5033274;28;20230;-63
2022/09/18 09:33:35;;;;;;;7.60;4.00;;;11.60;99.90;;;;;;5032836;28;20275;-64
2022/09/18 09:36:07;;;;;;;6.53;3.73;;;11.40;99.90;;;;;;5031193;28;20269;-56
2022/09/18 09:38:45;;;;;;;7.77;4.10;;;11.20;99.90;;;;;;5032267;28;20281;-57
2022/09/18 09:41:23;;;;;;;4.63;2.50;;;11.20;99.90;;;;;;5032530;28;20206;-62
2022/09/18 09:44:00;;;;;;;5.70;2.80;;;11.00;99.90;;;;;;5032614;28;20208;-56
2022/09/18 09:46:50;;;;;;;6.00;3.03;;;10.70;99.90;;;;;;5031550;28;20229;-59
2022/09/18 09:49:22;;;;;;;5.83;3.33;;;10.60;99.90;;;;;;5038066;28;20225;-59
2022/09/18 09:51:55;;;;;;;5.93;3.27;;;10.60;99.90;;;;;;5052182;28;20274;-59
2022/09/18 09:54:22;;;;;;;3.67;2.33;;;10.50;99.90;;;;;;5052801;28;20248;-56
2022/09/18 09:56:54;;;;;;;4.60;2.00;;;10.40;99.90;;;;;;5051509;28;20960;-50
2022/09/18 09:59:30;;;;;;;3.13;1.33;;;10.30;99.90;;;;;;5052146;28;20202;-53
2022/09/18 10:02:06;;;;;;;2.83;1.53;;;10.30;99.90;;;;;;5052312;28;20263;-56
2022/09/18 10:04:40;;;;;;;3.33;1.60;;;10.30;99.90;;;;;;5052309;28;20267;-57
2022/09/18 10:07:15;;;;;;;3.20;1.63;;;10.20;99.90;;;;;;5051534;28;20225;-57
2022/09/18 10:09:48;;;;;;;3.70;1.60;;;10.20;99.90;;;;;;5051982;28;20221;-56
2022/09/18 10:12:24;;;;;;;2.43;1.47;;;10.20;99.90;;;;;;5051908;28;20699;-56
2022/09/18 10:14:54;;;;;;;2.53;1.33;;;10.10;99.90;;;;;;5051975;28;20261;-55
2022/09/18 10:17:23;;;;;;;2.20;1.47;;;10.10;99.90;;;;;;5051395;28;20774;-52
2022/09/18 10:19:49;;;;;;;3.27;0.90;;;10.10;99.90;;;;;;5051669;28;20742;-55
2022/09/18 10:22:21;;;;;;;2.97;1.27;;;10.10;99.90;;;;;;5051693;28;20268;-58
2022/09/18 10:24:56;;;;;;;2.40;1.40;;;10.10;99.90;;;;;;5052104;28;20205;-58
2022/09/18 10:27:24;;;;;;;1.47;1.10;;;10.10;99.90;;;;;;5051513;28;20225;-59
2022/09/18 10:29:54;;;;;;;2.23;1.43;;;10.20;99.90;;;;;;5051686;28;20229;-57
2022/09/18 10:32:35;;;;;;;1.50;0.93;;;10.20;99.90;;;;;;5051719;28;20206;-55
2022/09/18 10:35:37;;;;;;;1.57;1.23;;;10.30;99.90;;;;;;5051657;28;20220;-55
2022/09/18 10:38:03;;;;;;;2.33;1.43;;;10.50;99.90;;;;;;5049658;28;20589;-56
2022/09/18 10:40:32;;;;;;;2.77;1.60;;;10.60;99.90;;;;;;5051028;28;20256;-55
2022/09/18 10:43:00;;;;;;;3.83;1.60;;;10.60;99.90;;;;;;5051182;28;20261;-59
2022/09/18 10:45:31;;;;;;;2.17;1.60;;;10.70;99.90;;;;;;5039248;28;20971;-63
2022/09/18 10:48:06;;;;;;;3.83;2.03;;;10.80;99.90;;;;;;5031330;28;20258;-62
2022/09/18 10:50:33;;;;;;;2.57;1.90;;;11.00;99.90;;;;;;5031065;28;20225;-63
2022/09/18 10:53:20;;;;;;;3.60;1.60;;;11.10;99.90;;;;;;5031382;28;20214;-62
2022/09/18 10:55:49;;;;;;;3.50;1.70;;;11.20;99.90;;;;;;5030603;28;20712;-62
2022/09/18 10:58:17;;;;;;;4.77;1.60;;;11.30;99.90;;;;;;5030336;28;20211;-61
2022/09/18 11:00:48;;;;;;;3.87;1.30;;;11.30;99.90;;;;;;5031116;28;20198;-62
2022/09/18 11:03:20;;;;;;;4.30;1.43;;;11.30;99.90;;;;;;5031378;28;20244;-62
2022/09/18 11:05:51;;;;;;;2.80;1.27;;;11.40;99.90;;;;;;5030771;28;20581;-59
2022/09/18 11:08:20;;;;;;;3.97;1.40;;;11.40;99.90;;;;;;5031084;28;20244;-58
2022/09/18 11:10:49;;;;;;;2.90;1.40;;;11.40;99.90;;;;;;5031090;28;20222;-58
2022/09/18 11:13:22;;;;;;;2.63;1.47;;;11.50;99.90;;;;;;5031402;28;20748;-64
2022/09/18 11:15:53;;;;;;;2.60;1.30;;;11.70;99.90;;;;;;5030955;28;20231;-64
2022/09/18 11:18:22;;;;;;;5.87;2.20;;;11.80;99.90;;;;;;5031028;28;20206;-67
2022/09/18 11:20:50;;;;;;;4.07;1.93;;;11.90;99.90;;;;;;5031060;28;20218;-66
2022/09/18 11:23:25;;;;;;;3.63;1.67;;;12.00;99.90;;;;;;5031075;28;20210;-66
2022/09/18 11:26:10;;;;;;;5.57;1.60;;;12.10;99.90;;;;;;5030735;28;20225;-62
2022/09/18 11:28:39;;;;;;;5.10;1.60;;;12.10;99.90;;;;;;5030759;28;20211;-64
2022/09/18 11:31:13;;;;;;;2.87;1.43;;;12.10;99.90;;;;;;5030208;28;20218;-65
2022/09/18 11:33:44;;;;;;;2.43;1.20;;;12.10;99.90;;;;;;5031081;28;20216;-65
2022/09/18 11:36:14;;;;;;;1.93;1.37;;;12.00;99.90;;;;;;5030427;28;20283;-65
2022/09/18 11:38:42;;;;;;;2.67;1.30;;;12.10;99.90;;;;;;5030818;28;20577;-65
2022/09/18 11:41:12;;;;;;;3.83;1.20;;;12.10;99.90;;;;;;5031041;28;20213;-64
2022/09/18 11:43:41;;;;;;;4.63;1.37;;;12.00;99.90;;;;;;5030684;28;20210;-64
2022/09/18 11:46:26;;;;;;;1.73;1.10;;;11.90;99.90;;;;;;5030728;28;20233;-63
2022/09/18 11:49:01;;;;;;;5.47;1.20;;;12.00;99.90;;;;;;5031154;28;20214;-63
2022/09/18 11:51:33;;;;;;;3.10;1.40;;;12.10;99.90;;;;;;5031125;28;20319;-64
2022/09/18 11:54:05;;;;;;;3.40;1.40;;;12.20;99.90;;;;;;5031276;28;20206;-64
2022/09/18 11:56:37;;;;;;;4.27;1.97;;;12.20;99.90;;;;;;5030168;28;20232;-64
2022/09/18 11:59:23;;;;;;;4.40;2.10;;;12.20;99.90;;;;;;5031323;28;20601;-64
2022/09/18 12:01:56;;;;;;;9.27;2.43;;;12.20;99.90;;;;;;5031140;28;20198;-65
2022/09/18 12:04:32;;;;;;;5.60;2.53;;;12.20;99.90;;;;;;5030882;28;20206;-63
2022/09/18 12:07:04;;;;;;;7.10;2.67;;;12.20;99.90;;;;;;5030158;28;20285;-63
2022/09/18 12:09:37;;;;;;;5.83;2.43;;;12.20;99.90;;;;;;5047576;28;20206;-63
2022/09/18 12:12:11;;;;;;;9.87;2.77;;;12.20;99.90;;;;;;5054279;28;20744;-63
2022/09/18 12:14:44;;;;;;;8.20;3.77;;;12.20;99.90;;;;;;5054314;28;20202;-63
2022/09/18 12:17:19;;;;;;;4.60;2.87;;;12.20;99.90;;;;;;5053929;28;20303;-63
2022/09/18 12:19:49;;;;;;;7.50;3.50;;;12.30;99.90;;;;;;5054503;28;20270;-65
2022/09/18 12:22:20;;;;;;;5.47;3.43;;;12.40;99.90;;;;;;5054510;28;20216;-64
2022/09/18 12:24:46;;;;;;;7.13;3.40;;;12.40;99.90;;;;;;5054353;28;20264;-65
2022/09/18 12:27:27;;;;;;;6.27;3.33;;;12.30;99.90;;;;;;5053807;28;20283;-65
2022/09/18 12:30:08;;;;;;;4.53;3.40;;;12.30;99.90;;;;;;5054365;28;20567;-66
2022/09/18 12:32:58;;;;;;;5.43;3.67;;;12.30;99.90;;;;;;5054567;28;20215;-65
2022/09/18 12:35:38;;;;;;;5.60;3.40;;;12.30;99.90;;;;;;5053440;28;20618;-63
2022/09/18 12:38:14;;;;;;;5.97;3.50;;;12.40;99.90;;;;;;5053365;28;20266;-59
2022/09/18 12:41:00;;;;;;;8.40;3.57;;;12.50;99.90;;;;;;5053961;28;20201;-60
2022/09/18 12:43:49;;;;;;;8.63;3.60;;;12.50;99.90;;;;;;5053814;28;20209;-58
2022/09/18 12:46:31;;;;;;;5.13;2.93;;;12.40;99.90;;;;;;5053228;28;20611;-58
2022/09/18 12:49:10;;;;;;;5.50;2.83;;;12.20;99.90;;;;;;5053696;28;20216;-61
2022/09/18 12:51:43;;;;;;;6.47;2.70;;;12.10;99.90;;;;;;5053870;28;20273;-61
2022/09/18 12:54:32;;;;;;;3.87;2.63;;;12.00;99.90;;;;;;5053347;28;20208;-62
2022/09/18 12:57:13;;;;;;;5.93;2.80;;;11.90;99.90;;;;;;5053085;28;20296;-61
2022/09/18 12:59:53;;;;;;;5.90;3.40;;;11.90;99.90;;;;;;5053450;28;20214;-61